sensor_id;sensor_type;location;lat;lon;timestamp;P1;durP1;ratioP1;P2;durP2;ratioP2
8279;SDS011;8335;42.646;23.380;2024-01-27T00:02:10;7.80;;;3.03;;
8279;SDS011;8335;42.646;23.380;2024-01-27T00:04:37;9.00;;;3.43;;
8279;SDS011;8335;42.646;23.380;2024-01-27T00:07:04;4.67;;;3.17;;
8279;SDS011;8335;42.646;23.380;2024-01-27T00:09:31;5.53;;;2.90;;
8279;SDS011;8335;42.646;23.380;2024-01-27T00:11:59;7.73;;;3.13;;
8279;SDS011;8335;42.646;23.380;2024-01-27T00:14:26;8.27;;;3.20;;
8279;SDS011;8335;42.646;23.380;2024-01-27T00:16:53;11.37;;;3.50;;
8279;SDS011;8335;42.646;23.380;2024-01-27T00:19:20;8.30;;;3.47;;
8279;SDS011;8335;42.646;23.380;2024-01-27T00:21:47;9.13;;;3.93;;
8279;SDS011;8335;42.646;23.380;2024-01-27T00:24:14;9.63;;;3.50;;
8279;SDS011;8335;42.646;23.380;2024-01-27T00:26:41;8.83;;;3.67;;
8279;SDS011;8335;42.646;23.380;2024-01-27T00:29:09;7.93;;;4.20;;
8279;SDS011;8335;42.646;23.380;2024-01-27T00:31:36;9.27;;;3.17;;
8279;SDS011;8335;42.646;23.380;2024-01-27T00:34:03;5.73;;;3.13;;
8279;SDS011;8335;42.646;23.380;2024-01-27T00:36:29;5.10;;;3.63;;
8279;SDS011;8335;42.646;23.380;2024-01-27T00:38:56;6.27;;;3.43;;
8279;SDS011;8335;42.646;23.380;2024-01-27T00:41:23;6.63;;;3.00;;
8279;SDS011;8335;42.646;23.380;2024-01-27T00:43:49;5.53;;;3.20;;
8279;SDS011;8335;42.646;23.380;2024-01-27T00:46:17;5.17;;;3.23;;
8279;SDS011;8335;42.646;23.380;2024-01-27T00:48:44;7.93;;;3.67;;
8279;SDS011;8335;42.646;23.380;2024-01-27T00:51:11;10.17;;;3.40;;
8279;SDS011;8335;42.646;23.380;2024-01-27T00:53:39;8.60;;;3.20;;
8279;SDS011;8335;42.646;23.380;2024-01-27T00:56:06;7.37;;;3.37;;
8279;SDS011;8335;42.646;23.380;2024-01-27T00:58:33;10.03;;;3.47;;
8279;SDS011;8335;42.646;23.380;2024-01-27T01:01:00;7.27;;;3.13;;
8279;SDS011;8335;42.646;23.380;2024-01-27T01:03:28;6.77;;;3.50;;
8279;SDS011;8335;42.646;23.380;2024-01-27T01:05:54;8.17;;;2.97;;
8279;SDS011;8335;42.646;23.380;2024-01-27T01:08:21;4.77;;;2.90;;
8279;SDS011;8335;42.646;23.380;2024-01-27T01:10:48;10.47;;;3.23;;
8279;SDS011;8335;42.646;23.380;2024-01-27T01:13:14;8.67;;;3.80;;
8279;SDS011;8335;42.646;23.380;2024-01-27T01:15:41;8.60;;;3.67;;
8279;SDS011;8335;42.646;23.380;2024-01-27T01:18:08;7.33;;;3.67;;
8279;SDS011;8335;42.646;23.380;2024-01-27T01:20:36;8.67;;;3.27;;
8279;SDS011;8335;42.646;23.380;2024-01-27T01:23:03;5.17;;;3.60;;
8279;SDS011;8335;42.646;23.380;2024-01-27T01:25:30;5.93;;;2.90;;
8279;SDS011;8335;42.646;23.380;2024-01-27T01:27:57;9.33;;;3.03;;
8279;SDS011;8335;42.646;23.380;2024-01-27T01:30:23;9.87;;;3.50;;
8279;SDS011;8335;42.646;23.380;2024-01-27T01:32:50;6.63;;;3.63;;
8279;SDS011;8335;42.646;23.380;2024-01-27T01:35:17;10.20;;;3.63;;
8279;SDS011;8335;42.646;23.380;2024-01-27T01:37:45;6.13;;;3.73;;
8279;SDS011;8335;42.646;23.380;2024-01-27T01:40:13;11.60;;;3.67;;
8279;SDS011;8335;42.646;23.380;2024-01-27T01:42:40;9.40;;;3.87;;
8279;SDS011;8335;42.646;23.380;2024-01-27T01:45:07;9.07;;;3.40;;
8279;SDS011;8335;42.646;23.380;2024-01-27T01:47:37;6.57;;;3.23;;
8279;SDS011;8335;42.646;23.380;2024-01-27T01:50:04;10.30;;;3.97;;
8279;SDS011;8335;42.646;23.380;2024-01-27T01:52:32;8.73;;;3.70;;
8279;SDS011;8335;42.646;23.380;2024-01-27T01:55:00;6.97;;;3.80;;
8279;SDS011;8335;42.646;23.380;2024-01-27T01:57:27;14.37;;;5.97;;
8279;SDS011;8335;42.646;23.380;2024-01-27T01:59:54;10.70;;;5.27;;
8279;SDS011;8335;42.646;23.380;2024-01-27T02:02:21;12.17;;;7.03;;
8279;SDS011;8335;42.646;23.380;2024-01-27T02:04:48;15.00;;;7.53;;
8279;SDS011;8335;42.646;23.380;2024-01-27T02:07:14;15.03;;;7.33;;
8279;SDS011;8335;42.646;23.380;2024-01-27T02:09:41;13.70;;;6.60;;
8279;SDS011;8335;42.646;23.380;2024-01-27T02:12:10;15.40;;;6.80;;
8279;SDS011;8335;42.646;23.380;2024-01-27T02:14:37;12.50;;;6.67;;
8279;SDS011;8335;42.646;23.380;2024-01-27T02:17:04;13.53;;;6.27;;
8279;SDS011;8335;42.646;23.380;2024-01-27T02:19:31;11.47;;;6.23;;
8279;SDS011;8335;42.646;23.380;2024-01-27T02:21:57;11.53;;;6.43;;
8279;SDS011;8335;42.646;23.380;2024-01-27T02:24:25;12.13;;;6.27;;
8279;SDS011;8335;42.646;23.380;2024-01-27T02:26:53;11.73;;;5.73;;
8279;SDS011;8335;42.646;23.380;2024-01-27T02:29:20;9.93;;;6.70;;
8279;SDS011;8335;42.646;23.380;2024-01-27T02:31:47;13.00;;;5.43;;
8279;SDS011;8335;42.646;23.380;2024-01-27T02:34:14;13.60;;;5.60;;
8279;SDS011;8335;42.646;23.380;2024-01-27T02:36:41;10.53;;;5.53;;
8279;SDS011;8335;42.646;23.380;2024-01-27T02:39:09;10.40;;;5.60;;
8279;SDS011;8335;42.646;23.380;2024-01-27T02:41:37;10.33;;;6.33;;
8279;SDS011;8335;42.646;23.380;2024-01-27T02:44:04;12.37;;;6.47;;
8279;SDS011;8335;42.646;23.380;2024-01-27T02:46:31;19.00;;;7.40;;
8279;SDS011;8335;42.646;23.380;2024-01-27T02:48:57;11.57;;;6.60;;
8279;SDS011;8335;42.646;23.380;2024-01-27T02:51:24;13.93;;;7.50;;
8279;SDS011;8335;42.646;23.380;2024-01-27T02:53:51;12.03;;;7.03;;
8279;SDS011;8335;42.646;23.380;2024-01-27T02:56:17;15.50;;;7.20;;
8279;SDS011;8335;42.646;23.380;2024-01-27T02:58:46;14.33;;;7.37;;
8279;SDS011;8335;42.646;23.380;2024-01-27T03:01:12;11.20;;;6.90;;
8279;SDS011;8335;42.646;23.380;2024-01-27T03:03:39;14.73;;;7.53;;
8279;SDS011;8335;42.646;23.380;2024-01-27T03:06:06;12.20;;;7.07;;
8279;SDS011;8335;42.646;23.380;2024-01-27T03:08:32;15.10;;;6.20;;
8279;SDS011;8335;42.646;23.380;2024-01-27T03:10:59;13.50;;;7.13;;
8279;SDS011;8335;42.646;23.380;2024-01-27T03:13:26;11.53;;;5.87;;
8279;SDS011;8335;42.646;23.380;2024-01-27T03:15:54;13.03;;;6.93;;
8279;SDS011;8335;42.646;23.380;2024-01-27T03:18:21;11.03;;;6.80;;
8279;SDS011;8335;42.646;23.380;2024-01-27T03:20:49;19.77;;;7.03;;
8279;SDS011;8335;42.646;23.380;2024-01-27T03:23:16;14.20;;;6.47;;
8279;SDS011;8335;42.646;23.380;2024-01-27T03:25:43;12.90;;;6.80;;
8279;SDS011;8335;42.646;23.380;2024-01-27T03:28:09;17.30;;;6.83;;
8279;SDS011;8335;42.646;23.380;2024-01-27T03:30:36;12.47;;;6.93;;
8279;SDS011;8335;42.646;23.380;2024-01-27T03:33:04;12.87;;;6.77;;
8279;SDS011;8335;42.646;23.380;2024-01-27T03:35:31;16.40;;;6.93;;
8279;SDS011;8335;42.646;23.380;2024-01-27T03:37:58;13.13;;;6.87;;
8279;SDS011;8335;42.646;23.380;2024-01-27T03:40:24;13.27;;;5.73;;
8279;SDS011;8335;42.646;23.380;2024-01-27T03:42:52;13.00;;;5.60;;
8279;SDS011;8335;42.646;23.380;2024-01-27T03:45:18;7.20;;;3.80;;
8279;SDS011;8335;42.646;23.380;2024-01-27T03:47:45;5.53;;;3.10;;
8279;SDS011;8335;42.646;23.380;2024-01-27T03:50:13;3.80;;;2.60;;
8279;SDS011;8335;42.646;23.380;2024-01-27T03:52:41;7.20;;;2.80;;
8279;SDS011;8335;42.646;23.380;2024-01-27T03:55:08;3.37;;;2.70;;
8279;SDS011;8335;42.646;23.380;2024-01-27T03:57:35;3.77;;;2.10;;
8279;SDS011;8335;42.646;23.380;2024-01-27T04:00:01;7.67;;;2.60;;
8279;SDS011;8335;42.646;23.380;2024-01-27T04:02:29;3.67;;;2.30;;
8279;SDS011;8335;42.646;23.380;2024-01-27T04:04:56;4.80;;;2.97;;
8279;SDS011;8335;42.646;23.380;2024-01-27T04:07:24;6.20;;;2.77;;
8279;SDS011;8335;42.646;23.380;2024-01-27T04:09:50;4.93;;;2.63;;
8279;SDS011;8335;42.646;23.380;2024-01-27T04:12:17;4.73;;;2.20;;
8279;SDS011;8335;42.646;23.380;2024-01-27T04:14:44;6.77;;;2.90;;
8279;SDS011;8335;42.646;23.380;2024-01-27T04:17:11;7.00;;;3.07;;
8279;SDS011;8335;42.646;23.380;2024-01-27T04:19:37;4.57;;;2.50;;
8279;SDS011;8335;42.646;23.380;2024-01-27T04:22:04;3.10;;;2.07;;
8279;SDS011;8335;42.646;23.380;2024-01-27T04:24:32;3.20;;;2.37;;
8279;SDS011;8335;42.646;23.380;2024-01-27T04:26:59;7.50;;;2.50;;
8279;SDS011;8335;42.646;23.380;2024-01-27T04:29:27;3.43;;;2.40;;
8279;SDS011;8335;42.646;23.380;2024-01-27T04:31:54;6.53;;;2.80;;
8279;SDS011;8335;42.646;23.380;2024-01-27T04:34:20;6.07;;;2.80;;
8279;SDS011;8335;42.646;23.380;2024-01-27T04:36:47;9.07;;;2.73;;
8279;SDS011;8335;42.646;23.380;2024-01-27T04:39:14;6.00;;;2.80;;
8279;SDS011;8335;42.646;23.380;2024-01-27T04:41:42;4.47;;;2.60;;
8279;SDS011;8335;42.646;23.380;2024-01-27T04:44:10;3.43;;;2.53;;
8279;SDS011;8335;42.646;23.380;2024-01-27T04:46:37;4.77;;;2.50;;
8279;SDS011;8335;42.646;23.380;2024-01-27T04:49:03;4.27;;;2.60;;
8279;SDS011;8335;42.646;23.380;2024-01-27T04:51:30;6.93;;;2.47;;
8279;SDS011;8335;42.646;23.380;2024-01-27T04:53:57;5.90;;;2.30;;
8279;SDS011;8335;42.646;23.380;2024-01-27T04:56:23;3.93;;;2.50;;
8279;SDS011;8335;42.646;23.380;2024-01-27T04:58:51;4.90;;;2.97;;
8279;SDS011;8335;42.646;23.380;2024-01-27T05:01:18;5.83;;;2.60;;
8279;SDS011;8335;42.646;23.380;2024-01-27T05:03:46;4.33;;;2.27;;
8279;SDS011;8335;42.646;23.380;2024-01-27T05:06:12;2.90;;;2.00;;
8279;SDS011;8335;42.646;23.380;2024-01-27T05:08:39;4.63;;;2.60;;
8279;SDS011;8335;42.646;23.380;2024-01-27T05:11:06;5.70;;;2.90;;
8279;SDS011;8335;42.646;23.380;2024-01-27T05:13:33;5.73;;;2.90;;
8279;SDS011;8335;42.646;23.380;2024-01-27T05:16:01;4.87;;;3.10;;
8279;SDS011;8335;42.646;23.380;2024-01-27T05:18:28;8.27;;;3.30;;
8279;SDS011;8335;42.646;23.380;2024-01-27T05:20:54;7.00;;;3.50;;
8279;SDS011;8335;42.646;23.380;2024-01-27T05:23:21;6.60;;;3.40;;
8279;SDS011;8335;42.646;23.380;2024-01-27T05:25:48;7.53;;;4.00;;
8279;SDS011;8335;42.646;23.380;2024-01-27T05:28:15;8.70;;;3.70;;
8279;SDS011;8335;42.646;23.380;2024-01-27T05:30:42;6.63;;;3.67;;
8279;SDS011;8335;42.646;23.380;2024-01-27T05:33:11;10.57;;;4.80;;
8279;SDS011;8335;42.646;23.380;2024-01-27T05:35:37;7.23;;;4.30;;
8279;SDS011;8335;42.646;23.380;2024-01-27T05:38:04;6.60;;;4.20;;
8279;SDS011;8335;42.646;23.380;2024-01-27T05:40:31;8.43;;;4.90;;
8279;SDS011;8335;42.646;23.380;2024-01-27T05:42:57;6.57;;;4.87;;
8279;SDS011;8335;42.646;23.380;2024-01-27T05:45:24;11.67;;;5.80;;
8279;SDS011;8335;42.646;23.380;2024-01-27T05:47:51;8.97;;;5.07;;
8279;SDS011;8335;42.646;23.380;2024-01-27T05:50:19;13.43;;;6.33;;
8279;SDS011;8335;42.646;23.380;2024-01-27T05:52:46;11.33;;;6.00;;
8279;SDS011;8335;42.646;23.380;2024-01-27T05:55:13;16.23;;;7.47;;
8279;SDS011;8335;42.646;23.380;2024-01-27T05:57:41;15.47;;;8.40;;
8279;SDS011;8335;42.646;23.380;2024-01-27T06:00:08;16.63;;;8.17;;
8279;SDS011;8335;42.646;23.380;2024-01-27T06:02:36;17.43;;;8.10;;
8279;SDS011;8335;42.646;23.380;2024-01-27T06:05:03;14.57;;;8.30;;
8279;SDS011;8335;42.646;23.380;2024-01-27T06:07:31;12.83;;;8.57;;
8279;SDS011;8335;42.646;23.380;2024-01-27T06:09:58;13.70;;;8.00;;
8279;SDS011;8335;42.646;23.380;2024-01-27T06:12:24;15.60;;;8.00;;
8279;SDS011;8335;42.646;23.380;2024-01-27T06:14:51;17.17;;;8.33;;
8279;SDS011;8335;42.646;23.380;2024-01-27T06:17:18;14.00;;;7.80;;
8279;SDS011;8335;42.646;23.380;2024-01-27T06:19:44;19.03;;;8.30;;
8279;SDS011;8335;42.646;23.380;2024-01-27T06:22:11;18.73;;;8.40;;
8279;SDS011;8335;42.646;23.380;2024-01-27T06:24:42;23.30;;;8.93;;
8279;SDS011;8335;42.646;23.380;2024-01-27T06:27:10;13.07;;;7.97;;
8279;SDS011;8335;42.646;23.380;2024-01-27T06:29:36;17.10;;;8.60;;
8279;SDS011;8335;42.646;23.380;2024-01-27T06:32:03;13.60;;;7.93;;
8279;SDS011;8335;42.646;23.380;2024-01-27T06:34:31;16.60;;;8.57;;
8279;SDS011;8335;42.646;23.380;2024-01-27T06:36:58;12.30;;;7.10;;
8279;SDS011;8335;42.646;23.380;2024-01-27T06:39:25;12.13;;;5.83;;
8279;SDS011;8335;42.646;23.380;2024-01-27T06:41:53;12.33;;;5.47;;
8279;SDS011;8335;42.646;23.380;2024-01-27T06:44:20;10.07;;;4.50;;
8279;SDS011;8335;42.646;23.380;2024-01-27T06:46:46;8.40;;;4.07;;
8279;SDS011;8335;42.646;23.380;2024-01-27T06:49:15;5.60;;;3.93;;
8279;SDS011;8335;42.646;23.380;2024-01-27T06:51:41;7.40;;;3.70;;
8279;SDS011;8335;42.646;23.380;2024-01-27T06:54:09;5.07;;;3.13;;
8279;SDS011;8335;42.646;23.380;2024-01-27T06:56:36;6.70;;;2.50;;
8279;SDS011;8335;42.646;23.380;2024-01-27T06:59:04;2.20;;;2.00;;
8279;SDS011;8335;42.646;23.380;2024-01-27T07:01:31;3.03;;;2.20;;
8279;SDS011;8335;42.646;23.380;2024-01-27T07:03:58;1.90;;;1.70;;
8279;SDS011;8335;42.646;23.380;2024-01-27T07:06:25;2.60;;;1.87;;
8279;SDS011;8335;42.646;23.380;2024-01-27T07:08:51;2.97;;;1.90;;
8279;SDS011;8335;42.646;23.380;2024-01-27T07:11:18;2.20;;;1.80;;
8279;SDS011;8335;42.646;23.380;2024-01-27T07:13:45;4.07;;;2.00;;
8279;SDS011;8335;42.646;23.380;2024-01-27T07:16:13;2.00;;;1.80;;
8279;SDS011;8335;42.646;23.380;2024-01-27T07:18:39;2.33;;;1.90;;
8279;SDS011;8335;42.646;23.380;2024-01-27T07:21:06;3.10;;;2.13;;
8279;SDS011;8335;42.646;23.380;2024-01-27T07:23:33;2.27;;;2.07;;
8279;SDS011;8335;42.646;23.380;2024-01-27T07:26:00;3.43;;;2.13;;
8279;SDS011;8335;42.646;23.380;2024-01-27T07:28:28;4.57;;;2.30;;
8279;SDS011;8335;42.646;23.380;2024-01-27T07:30:55;3.43;;;1.90;;
8279;SDS011;8335;42.646;23.380;2024-01-27T07:33:23;1.90;;;1.80;;
8279;SDS011;8335;42.646;23.380;2024-01-27T07:35:50;3.43;;;2.03;;
8279;SDS011;8335;42.646;23.380;2024-01-27T07:38:17;5.20;;;2.63;;
8279;SDS011;8335;42.646;23.380;2024-01-27T07:40:43;2.40;;;2.07;;
8279;SDS011;8335;42.646;23.380;2024-01-27T07:43:10;2.93;;;1.90;;
8279;SDS011;8335;42.646;23.380;2024-01-27T07:45:37;3.03;;;2.30;;
8279;SDS011;8335;42.646;23.380;2024-01-27T07:48:04;3.28;;;2.20;;
8279;SDS011;8335;42.646;23.380;2024-01-27T07:50:32;2.87;;;2.20;;
8279;SDS011;8335;42.646;23.380;2024-01-27T07:52:59;3.70;;;2.50;;
8279;SDS011;8335;42.646;23.380;2024-01-27T07:55:26;3.80;;;2.50;;
8279;SDS011;8335;42.646;23.380;2024-01-27T07:57:52;3.10;;;2.53;;
8279;SDS011;8335;42.646;23.380;2024-01-27T08:00:19;4.40;;;3.00;;
8279;SDS011;8335;42.646;23.380;2024-01-27T08:02:46;5.00;;;2.90;;
8279;SDS011;8335;42.646;23.380;2024-01-27T08:05:13;6.37;;;2.80;;
8279;SDS011;8335;42.646;23.380;2024-01-27T08:07:41;3.40;;;2.87;;
8279;SDS011;8335;42.646;23.380;2024-01-27T08:10:08;4.43;;;3.00;;
8279;SDS011;8335;42.646;23.380;2024-01-27T08:12:36;4.77;;;3.07;;
8279;SDS011;8335;42.646;23.380;2024-01-27T08:15:03;5.47;;;3.10;;
8279;SDS011;8335;42.646;23.380;2024-01-27T08:17:31;4.80;;;3.07;;
8279;SDS011;8335;42.646;23.380;2024-01-27T08:19:57;4.87;;;3.43;;
8279;SDS011;8335;42.646;23.380;2024-01-27T08:22:24;5.17;;;3.40;;
8279;SDS011;8335;42.646;23.380;2024-01-27T08:24:52;6.20;;;3.50;;
8279;SDS011;8335;42.646;23.380;2024-01-27T08:27:19;5.53;;;3.30;;
8279;SDS011;8335;42.646;23.380;2024-01-27T08:29:46;4.43;;;3.53;;
8279;SDS011;8335;42.646;23.380;2024-01-27T08:32:12;7.60;;;3.17;;
8279;SDS011;8335;42.646;23.380;2024-01-27T08:34:39;4.73;;;3.27;;
8279;SDS011;8335;42.646;23.380;2024-01-27T08:37:13;3.90;;;3.20;;
8279;SDS011;8335;42.646;23.380;2024-01-27T08:39:41;4.33;;;3.83;;
8279;SDS011;8335;42.646;23.380;2024-01-27T08:42:10;3.37;;;2.87;;
8279;SDS011;8335;42.646;23.380;2024-01-27T08:44:37;6.17;;;2.47;;
8279;SDS011;8335;42.646;23.380;2024-01-27T08:47:04;4.03;;;2.93;;
8279;SDS011;8335;42.646;23.380;2024-01-27T08:49:31;6.33;;;3.10;;
8279;SDS011;8335;42.646;23.380;2024-01-27T08:51:57;4.13;;;2.97;;
8279;SDS011;8335;42.646;23.380;2024-01-27T08:54:24;5.70;;;3.37;;
8279;SDS011;8335;42.646;23.380;2024-01-27T08:56:51;4.17;;;2.60;;
8279;SDS011;8335;42.646;23.380;2024-01-27T08:59:19;6.30;;;2.50;;
8279;SDS011;8335;42.646;23.380;2024-01-27T09:01:46;3.10;;;2.30;;
8279;SDS011;8335;42.646;23.380;2024-01-27T09:04:12;4.43;;;2.77;;
8279;SDS011;8335;42.646;23.380;2024-01-27T09:06:39;3.73;;;2.80;;
8279;SDS011;8335;42.646;23.380;2024-01-27T09:09:06;3.73;;;2.37;;
8279;SDS011;8335;42.646;23.380;2024-01-27T09:11:33;4.97;;;2.40;;
8279;SDS011;8335;42.646;23.380;2024-01-27T09:14:00;4.57;;;2.80;;
8279;SDS011;8335;42.646;23.380;2024-01-27T09:16:28;5.00;;;3.60;;
8279;SDS011;8335;42.646;23.380;2024-01-27T09:18:54;3.33;;;2.70;;
8279;SDS011;8335;42.646;23.380;2024-01-27T09:21:21;3.90;;;2.57;;
8279;SDS011;8335;42.646;23.380;2024-01-27T09:23:53;3.83;;;2.30;;
8279;SDS011;8335;42.646;23.380;2024-01-27T09:26:19;3.70;;;2.60;;
8279;SDS011;8335;42.646;23.380;2024-01-27T09:28:48;7.47;;;2.67;;
8279;SDS011;8335;42.646;23.380;2024-01-27T09:31:19;3.47;;;2.63;;
8279;SDS011;8335;42.646;23.380;2024-01-27T09:33:49;3.60;;;2.40;;
8279;SDS011;8335;42.646;23.380;2024-01-27T09:36:17;4.63;;;2.60;;
8279;SDS011;8335;42.646;23.380;2024-01-27T09:38:44;3.13;;;2.30;;
8279;SDS011;8335;42.646;23.380;2024-01-27T09:41:12;2.83;;;2.30;;
8279;SDS011;8335;42.646;23.380;2024-01-27T09:43:40;3.73;;;2.50;;
8279;SDS011;8335;42.646;23.380;2024-01-27T09:46:09;6.97;;;2.30;;
8279;SDS011;8335;42.646;23.380;2024-01-27T09:48:35;2.63;;;2.03;;
8279;SDS011;8335;42.646;23.380;2024-01-27T09:51:04;15.67;;;6.67;;
8279;SDS011;8335;42.646;23.380;2024-01-27T09:53:31;4.87;;;2.30;;
8279;SDS011;8335;42.646;23.380;2024-01-27T09:55:58;2.73;;;2.23;;
8279;SDS011;8335;42.646;23.380;2024-01-27T09:58:27;4.63;;;2.37;;
8279;SDS011;8335;42.646;23.380;2024-01-27T10:00:55;2.40;;;2.20;;
8279;SDS011;8335;42.646;23.380;2024-01-27T10:03:23;3.17;;;2.20;;
8279;SDS011;8335;42.646;23.380;2024-01-27T10:05:51;4.30;;;2.23;;
8279;SDS011;8335;42.646;23.380;2024-01-27T10:08:21;2.77;;;2.23;;
8279;SDS011;8335;42.646;23.380;2024-01-27T10:10:49;4.40;;;2.67;;
8279;SDS011;8335;42.646;23.380;2024-01-27T10:13:20;5.27;;;2.47;;
8279;SDS011;8335;42.646;23.380;2024-01-27T10:15:59;3.03;;;2.40;;
8279;SDS011;8335;42.646;23.380;2024-01-27T10:18:26;6.97;;;2.53;;
8279;SDS011;8335;42.646;23.380;2024-01-27T10:20:53;4.47;;;2.73;;
8279;SDS011;8335;42.646;23.380;2024-01-27T10:23:21;2.50;;;2.30;;
8279;SDS011;8335;42.646;23.380;2024-01-27T10:25:48;2.77;;;2.37;;
8279;SDS011;8335;42.646;23.380;2024-01-27T10:28:16;3.63;;;2.43;;
8279;SDS011;8335;42.646;23.380;2024-01-27T10:30:43;2.60;;;2.40;;
8279;SDS011;8335;42.646;23.380;2024-01-27T10:33:10;7.23;;;2.50;;
8279;SDS011;8335;42.646;23.380;2024-01-27T10:35:38;3.07;;;2.30;;
8279;SDS011;8335;42.646;23.380;2024-01-27T10:38:05;2.90;;;2.60;;
8279;SDS011;8335;42.646;23.380;2024-01-27T10:40:34;3.63;;;2.60;;
8279;SDS011;8335;42.646;23.380;2024-01-27T10:43:02;3.63;;;2.30;;
8279;SDS011;8335;42.646;23.380;2024-01-27T10:45:33;2.93;;;2.43;;
8279;SDS011;8335;42.646;23.380;2024-01-27T10:48:01;3.40;;;2.50;;
8279;SDS011;8335;42.646;23.380;2024-01-27T10:50:29;4.50;;;2.40;;
8279;SDS011;8335;42.646;23.380;2024-01-27T10:52:58;3.00;;;2.07;;
8279;SDS011;8335;42.646;23.380;2024-01-27T10:55:27;3.10;;;2.10;;
8279;SDS011;8335;42.646;23.380;2024-01-27T10:57:55;2.27;;;2.07;;
8279;SDS011;8335;42.646;23.380;2024-01-27T11:00:27;3.57;;;2.23;;
8279;SDS011;8335;42.646;23.380;2024-01-27T11:02:54;3.53;;;2.30;;
8279;SDS011;8335;42.646;23.380;2024-01-27T11:05:24;2.83;;;2.30;;
8279;SDS011;8335;42.646;23.380;2024-01-27T11:07:53;4.33;;;2.30;;
8279;SDS011;8335;42.646;23.380;2024-01-27T11:10:20;2.47;;;2.20;;
8279;SDS011;8335;42.646;23.380;2024-01-27T11:12:47;4.53;;;2.60;;
8279;SDS011;8335;42.646;23.380;2024-01-27T11:15:17;2.60;;;2.40;;
8279;SDS011;8335;42.646;23.380;2024-01-27T11:17:43;5.60;;;2.50;;
8279;SDS011;8335;42.646;23.380;2024-01-27T11:20:11;7.70;;;2.83;;
8279;SDS011;8335;42.646;23.380;2024-01-27T11:22:41;6.13;;;2.93;;
8279;SDS011;8335;42.646;23.380;2024-01-27T11:25:13;3.97;;;2.70;;
8279;SDS011;8335;42.646;23.380;2024-01-27T11:27:43;3.37;;;2.80;;
8279;SDS011;8335;42.646;23.380;2024-01-27T11:30:25;2.97;;;2.60;;
8279;SDS011;8335;42.646;23.380;2024-01-27T11:32:53;4.07;;;3.20;;
8279;SDS011;8335;42.646;23.380;2024-01-27T11:35:21;5.10;;;2.87;;
8279;SDS011;8335;42.646;23.380;2024-01-27T11:37:48;3.40;;;3.10;;
8279;SDS011;8335;42.646;23.380;2024-01-27T11:40:15;4.23;;;3.13;;
8279;SDS011;8335;42.646;23.380;2024-01-27T11:42:42;4.17;;;3.53;;
8279;SDS011;8335;42.646;23.380;2024-01-27T11:45:09;3.63;;;3.33;;
8279;SDS011;8335;42.646;23.380;2024-01-27T11:47:37;4.27;;;3.40;;
8279;SDS011;8335;42.646;23.380;2024-01-27T11:50:04;5.77;;;3.43;;
8279;SDS011;8335;42.646;23.380;2024-01-27T11:52:31;4.13;;;3.73;;
8279;SDS011;8335;42.646;23.380;2024-01-27T11:54:58;4.47;;;3.50;;
8279;SDS011;8335;42.646;23.380;2024-01-27T11:57:26;4.43;;;4.03;;
8279;SDS011;8335;42.646;23.380;2024-01-27T11:59:53;6.10;;;3.63;;
8279;SDS011;8335;42.646;23.380;2024-01-27T12:02:21;3.87;;;3.50;;
8279;SDS011;8335;42.646;23.380;2024-01-27T12:04:49;6.40;;;3.43;;
8279;SDS011;8335;42.646;23.380;2024-01-27T12:07:16;5.47;;;3.90;;
8279;SDS011;8335;42.646;23.380;2024-01-27T12:09:44;4.00;;;3.53;;
8279;SDS011;8335;42.646;23.380;2024-01-27T12:12:12;4.23;;;3.83;;
8279;SDS011;8335;42.646;23.380;2024-01-27T12:14:40;3.80;;;3.40;;
8279;SDS011;8335;42.646;23.380;2024-01-27T12:17:09;3.60;;;3.30;;
8279;SDS011;8335;42.646;23.380;2024-01-27T12:19:36;4.50;;;3.93;;
8279;SDS011;8335;42.646;23.380;2024-01-27T12:22:04;4.47;;;4.07;;
8279;SDS011;8335;42.646;23.380;2024-01-27T12:24:45;5.47;;;3.50;;
8279;SDS011;8335;42.646;23.380;2024-01-27T12:27:12;3.93;;;3.50;;
8279;SDS011;8335;42.646;23.380;2024-01-27T12:29:40;5.57;;;3.67;;
8279;SDS011;8335;42.646;23.380;2024-01-27T12:32:07;6.47;;;3.30;;
8279;SDS011;8335;42.646;23.380;2024-01-27T12:34:38;6.03;;;4.83;;
8279;SDS011;8335;42.646;23.380;2024-01-27T12:37:07;4.47;;;3.10;;
8279;SDS011;8335;42.646;23.380;2024-01-27T12:39:34;3.27;;;2.97;;
8279;SDS011;8335;42.646;23.380;2024-01-27T12:42:01;5.37;;;3.60;;
8279;SDS011;8335;42.646;23.380;2024-01-27T12:44:28;4.97;;;3.63;;
8279;SDS011;8335;42.646;23.380;2024-01-27T12:46:54;6.00;;;3.23;;
8279;SDS011;8335;42.646;23.380;2024-01-27T12:49:22;3.40;;;3.07;;
8279;SDS011;8335;42.646;23.380;2024-01-27T12:51:49;4.80;;;3.30;;
8279;SDS011;8335;42.646;23.380;2024-01-27T12:54:18;4.97;;;2.90;;
8279;SDS011;8335;42.646;23.380;2024-01-27T12:56:44;6.77;;;3.10;;
8279;SDS011;8335;42.646;23.380;2024-01-27T12:59:11;4.33;;;2.73;;
8279;SDS011;8335;42.646;23.380;2024-01-27T13:01:39;3.47;;;3.17;;
8279;SDS011;8335;42.646;23.380;2024-01-27T13:04:05;4.77;;;3.23;;
8279;SDS011;8335;42.646;23.380;2024-01-27T13:06:32;3.30;;;3.00;;
8279;SDS011;8335;42.646;23.380;2024-01-27T13:08:59;5.87;;;3.90;;
8279;SDS011;8335;42.646;23.380;2024-01-27T13:11:27;3.50;;;3.20;;
8279;SDS011;8335;42.646;23.380;2024-01-27T13:13:54;3.83;;;3.03;;
8279;SDS011;8335;42.646;23.380;2024-01-27T13:16:21;3.30;;;3.00;;
8279;SDS011;8335;42.646;23.380;2024-01-27T13:18:48;7.73;;;3.20;;
8279;SDS011;8335;42.646;23.380;2024-01-27T13:21:15;3.30;;;2.97;;
8279;SDS011;8335;42.646;23.380;2024-01-27T13:23:41;3.43;;;2.93;;
8279;SDS011;8335;42.646;23.380;2024-01-27T13:26:08;3.53;;;3.00;;
8279;SDS011;8335;42.646;23.380;2024-01-27T13:28:36;3.60;;;2.80;;
8279;SDS011;8335;42.646;23.380;2024-01-27T13:31:03;4.27;;;3.10;;
8279;SDS011;8335;42.646;23.380;2024-01-27T13:33:30;4.37;;;2.60;;
8279;SDS011;8335;42.646;23.380;2024-01-27T13:35:57;8.40;;;3.00;;
8279;SDS011;8335;42.646;23.380;2024-01-27T13:38:24;6.90;;;2.77;;
8279;SDS011;8335;42.646;23.380;2024-01-27T13:40:51;4.57;;;2.63;;
8279;SDS011;8335;42.646;23.380;2024-01-27T13:43:18;3.60;;;2.70;;
8279;SDS011;8335;42.646;23.380;2024-01-27T13:45:46;3.70;;;2.93;;
8279;SDS011;8335;42.646;23.380;2024-01-27T13:48:13;2.73;;;2.53;;
8279;SDS011;8335;42.646;23.380;2024-01-27T13:50:40;4.33;;;2.70;;
8279;SDS011;8335;42.646;23.380;2024-01-27T13:53:07;3.77;;;2.60;;
8279;SDS011;8335;42.646;23.380;2024-01-27T13:55:34;3.33;;;2.40;;
8279;SDS011;8335;42.646;23.380;2024-01-27T13:58:00;2.47;;;2.27;;
8279;SDS011;8335;42.646;23.380;2024-01-27T14:00:27;12.33;;;2.93;;
8279;SDS011;8335;42.646;23.380;2024-01-27T14:02:55;2.40;;;2.20;;
8279;SDS011;8335;42.646;23.380;2024-01-27T14:05:22;3.17;;;2.50;;
8279;SDS011;8335;42.646;23.380;2024-01-27T14:07:49;3.57;;;2.40;;
8279;SDS011;8335;42.646;23.380;2024-01-27T14:10:15;4.27;;;2.60;;
8279;SDS011;8335;42.646;23.380;2024-01-27T14:12:42;4.47;;;2.30;;
8279;SDS011;8335;42.646;23.380;2024-01-27T14:15:09;4.53;;;2.47;;
8279;SDS011;8335;42.646;23.380;2024-01-27T14:17:36;3.23;;;2.30;;
8279;SDS011;8335;42.646;23.380;2024-01-27T14:20:05;3.93;;;2.80;;
8279;SDS011;8335;42.646;23.380;2024-01-27T14:22:34;3.33;;;2.40;;
8279;SDS011;8335;42.646;23.380;2024-01-27T14:25:01;4.03;;;2.40;;
8279;SDS011;8335;42.646;23.380;2024-01-27T14:27:27;3.80;;;2.50;;
8279;SDS011;8335;42.646;23.380;2024-01-27T14:29:54;3.13;;;2.63;;
8279;SDS011;8335;42.646;23.380;2024-01-27T14:32:21;5.83;;;2.10;;
8279;SDS011;8335;42.646;23.380;2024-01-27T14:34:49;4.07;;;2.00;;
8279;SDS011;8335;42.646;23.380;2024-01-27T14:37:17;4.13;;;2.47;;
8279;SDS011;8335;42.646;23.380;2024-01-27T14:39:44;5.17;;;2.30;;
8279;SDS011;8335;42.646;23.380;2024-01-27T14:42:12;2.73;;;2.30;;
8279;SDS011;8335;42.646;23.380;2024-01-27T14:44:38;4.50;;;2.30;;
8279;SDS011;8335;42.646;23.380;2024-01-27T14:47:05;5.53;;;2.20;;
8279;SDS011;8335;42.646;23.380;2024-01-27T14:49:34;3.07;;;2.00;;
8279;SDS011;8335;42.646;23.380;2024-01-27T14:52:02;3.77;;;2.57;;
8279;SDS011;8335;42.646;23.380;2024-01-27T14:54:31;3.60;;;1.93;;
8279;SDS011;8335;42.646;23.380;2024-01-27T14:56:58;2.97;;;2.10;;
8279;SDS011;8335;42.646;23.380;2024-01-27T14:59:25;3.57;;;2.03;;